Shekhupura, Pakistan
Current Conditions -  °F | °C
As of 7:55 PM on Saturday 20 Dec 2014 (Local Time) from OPLA Reporting Station
Haze Haze  
Wind Chill: 46°   Ceiling: Unl
Heat Index: 46°   Visibility: 1.2mi
Dew Point: 43°   Wind: 0mph
Humidity: 87%   Direction: NA
Pressure: NA   Gusts: NA
Location:  31.72°N, 73.98°E
Report Text: OPLA 201455Z 00000KT 2000 BR SCT100 08/06 Q1018/A30.05 BECMG1500 FG
Loading
Personal Weather Stations






























Interactive Weather Map New forecast layout! Learn more

10-Day Weather Forecast

Advertisements
Track Severe Weather on mobile